Lynx, Ohio
Current Conditions -  °F | °C
As of 8:35 AM on Wednesday 22 Oct 2014 (Local Time) from KFGX Reporting Station
Overcast Overcast  
Wind Chill: 39°   Ceiling: 1400
Heat Index: 45°   Visibility: 10mi
Dew Point: 40°   Wind: 10mph
Humidity: 84%   Direction: 30°NNE
Pressure: 30.25"   Gusts: NA
Location:  38.77°N, 83.41°W
Report Text: KFGX 221235Z AUTO 03009KT 10SM OVC014 07/05 A3025 RMK AO2 T00700045
Loading
Personal Weather Stations






























Interactive Weather Map
Tropical Storm Tracking
New forecast layout! Learn more

10-Day Weather Forecast

Advertisements
Track Severe Weather on mobile